createdAt,value
2022-08-01T00:00:08.954Z,1.65
2022-08-01T00:02:36.657Z,1.50
2022-08-01T00:05:03.670Z,1.70
2022-08-01T00:07:30.276Z,1.60
2022-08-01T00:09:56.937Z,1.55
2022-08-01T00:12:23.410Z,1.80
2022-08-01T00:14:50.185Z,1.67
2022-08-01T00:17:16.872Z,1.52
2022-08-01T00:19:43.381Z,1.60
2022-08-01T00:22:10.323Z,1.55
2022-08-01T00:24:37.004Z,1.40
2022-08-01T00:27:03.666Z,1.40
2022-08-01T00:30:09.952Z,2.33
2022-08-01T00:32:16.947Z,1.60
2022-08-01T00:34:43.655Z,1.48
2022-08-01T00:37:10.137Z,1.40
2022-08-01T00:39:40.798Z,1.42
2022-08-01T00:42:08.993Z,1.83
2022-08-01T00:44:36.039Z,1.40
2022-08-01T00:47:03.776Z,1.40
2022-08-01T00:49:30.975Z,2.00
2022-08-01T00:51:59.294Z,1.45
2022-08-01T00:54:28.116Z,1.60
2022-08-01T00:56:55.688Z,1.42
2022-08-01T00:59:23.531Z,1.75
2022-08-01T01:01:52.650Z,1.60
2022-08-01T01:04:20.513Z,1.60
2022-08-01T01:06:53.032Z,1.50
2022-08-01T01:09:39.241Z,1.60
2022-08-01T01:12:33.036Z,1.63
2022-08-01T01:15:11.026Z,1.52
2022-08-01T01:17:51.113Z,2.00
2022-08-01T01:20:19.337Z,1.75
2022-08-01T01:22:56.925Z,1.67
2022-08-01T01:25:52.309Z,1.65
2022-08-01T01:28:36.491Z,1.52
2022-08-01T01:31:07.543Z,1.40
2022-08-01T01:33:45.357Z,1.48
2022-08-01T01:36:15.673Z,1.73
2022-08-01T01:38:45.228Z,1.60
2022-08-01T01:41:14.096Z,1.65
2022-08-01T01:43:41.489Z,1.67
2022-08-01T01:46:10.058Z,1.77
2022-08-01T01:48:38.495Z,1.90
2022-08-01T01:51:05.417Z,1.60
2022-08-01T01:53:35.371Z,1.67
2022-08-01T01:56:04.237Z,2.05
2022-08-01T01:58:33.903Z,1.80
2022-08-01T02:01:03.538Z,1.70
2022-08-01T02:03:32.235Z,2.05
2022-08-01T02:06:00.742Z,1.70
2022-08-01T02:08:30.669Z,1.80
2022-08-01T02:11:18.687Z,2.00
2022-08-01T02:13:57.013Z,2.40
2022-08-01T02:16:27.118Z,1.80
2022-08-01T02:18:54.968Z,2.20
2022-08-01T02:21:29.069Z,1.88
2022-08-01T02:24:05.664Z,2.57
2022-08-01T02:26:33.989Z,2.55
2022-08-01T02:29:03.480Z,2.40
2022-08-01T02:31:33.329Z,2.30
2022-08-01T02:34:05.367Z,2.60
2022-08-01T02:36:39.391Z,2.20
2022-08-01T02:39:18.593Z,2.85
2022-08-01T02:41:50.908Z,2.30
2022-08-01T02:44:28.990Z,2.53
2022-08-01T02:47:03.218Z,3.17
2022-08-01T02:49:36.304Z,2.42
2022-08-01T02:52:08.486Z,2.72
2022-08-01T02:54:37.743Z,2.80
2022-08-01T02:57:07.057Z,3.20
2022-08-01T02:59:36.319Z,3.08
2022-08-01T03:02:06.608Z,2.88
2022-08-01T03:04:37.661Z,2.80
2022-08-01T03:07:07.212Z,2.70
2022-08-01T03:09:38.732Z,2.97
2022-08-01T03:12:10.216Z,2.90
2022-08-01T03:14:38.896Z,2.72
2022-08-01T03:17:09.031Z,2.80
2022-08-01T03:19:38.710Z,2.65
2022-08-01T03:22:09.212Z,2.70
2022-08-01T03:24:38.805Z,3.15
2022-08-01T03:27:07.284Z,2.80
2022-08-01T03:29:34.874Z,3.13
2022-08-01T03:32:03.788Z,3.08
2022-08-01T03:34:31.082Z,2.97
2022-08-01T03:37:03.585Z,3.33
2022-08-01T03:39:37.965Z,3.50
2022-08-01T03:42:18.727Z,3.20
2022-08-01T03:44:52.531Z,2.53
2022-08-01T03:47:20.465Z,3.03
2022-08-01T03:49:50.504Z,3.58
2022-08-01T03:52:17.377Z,3.33
2022-08-01T03:54:48.717Z,2.95
2022-08-01T03:57:35.583Z,2.50
2022-08-01T04:00:08.299Z,3.22
2022-08-01T04:02:36.163Z,3.45
2022-08-01T04:05:04.084Z,3.40
2022-08-01T04:07:33.364Z,3.25
2022-08-01T04:10:00.146Z,3.30
2022-08-01T04:12:26.839Z,3.33
2022-08-01T04:14:54.040Z,3.17
2022-08-01T04:17:20.490Z,3.28
2022-08-01T04:19:47.226Z,3.25
2022-08-01T04:22:15.937Z,3.28
2022-08-01T04:24:45.425Z,3.20
2022-08-01T04:27:19.035Z,3.53
2022-08-01T04:30:07.734Z,3.40
2022-08-01T04:32:40.717Z,2.55
2022-08-01T04:35:23.540Z,3.08
2022-08-01T04:38:02.752Z,4.00
2022-08-01T04:40:31.413Z,3.65
2022-08-01T04:42:58.440Z,3.70
2022-08-01T04:45:25.552Z,2.97
2022-08-01T04:47:53.003Z,2.72
2022-08-01T04:50:22.740Z,3.28
2022-08-01T04:52:49.302Z,2.90
2022-08-01T04:55:18.076Z,3.42
2022-08-01T04:57:47.420Z,3.28
2022-08-01T05:00:14.606Z,3.15
2022-08-01T05:02:41.228Z,3.47
2022-08-01T05:05:08.270Z,3.25
2022-08-01T05:07:45.325Z,3.35
2022-08-01T05:10:12.646Z,3.38
2022-08-01T05:12:39.363Z,4.45
2022-08-01T05:15:11.702Z,3.63
2022-08-01T05:17:43.086Z,4.07
2022-08-01T05:20:10.686Z,3.53
2022-08-01T05:22:37.472Z,3.78
2022-08-01T05:25:05.884Z,4.15
2022-08-01T05:27:33.469Z,4.28
2022-08-01T05:30:00.776Z,4.45
2022-08-01T05:32:28.189Z,4.22
2022-08-01T05:34:54.791Z,4.53
2022-08-01T05:37:21.421Z,4.55
2022-08-01T05:39:48.112Z,3.80
2022-08-01T05:42:14.625Z,4.75
2022-08-01T05:44:43.263Z,4.47
2022-08-01T05:47:10.009Z,4.70
2022-08-01T05:49:36.820Z,4.85
2022-08-01T05:52:04.055Z,4.88
2022-08-01T05:54:30.939Z,4.60
2022-08-01T05:57:00.727Z,5.28
2022-08-01T05:59:27.636Z,5.32
2022-08-01T06:01:54.365Z,5.25
2022-08-01T06:04:21.099Z,6.13
2022-08-01T06:06:48.120Z,6.47
2022-08-01T06:09:15.087Z,7.00
2022-08-01T06:11:41.849Z,7.22
2022-08-01T06:14:08.705Z,7.47
2022-08-01T06:16:35.489Z,8.38
2022-08-01T06:19:03.228Z,8.25
2022-08-01T06:21:29.892Z,8.25
2022-08-01T06:23:57.594Z,9.13
2022-08-01T06:26:24.145Z,10.05
2022-08-01T06:28:50.952Z,9.07
2022-08-01T06:31:17.583Z,8.35
2022-08-01T06:33:44.180Z,8.48
2022-08-01T06:36:10.682Z,9.70
2022-08-01T06:38:38.297Z,8.93
2022-08-01T06:41:04.832Z,8.32
2022-08-01T06:43:32.260Z,8.77
2022-08-01T06:45:58.850Z,9.05
2022-08-01T06:48:25.337Z,8.73
2022-08-01T06:51:11.525Z,8.70
2022-08-01T06:53:38.915Z,8.88
2022-08-01T06:56:07.046Z,8.95
2022-08-01T06:58:35.711Z,7.93
2022-08-01T07:01:06.735Z,8.35
2022-08-01T07:03:52.688Z,8.57
2022-08-01T07:06:20.410Z,8.65
2022-08-01T07:08:46.951Z,9.07
2022-08-01T07:11:13.426Z,9.98
2022-08-01T07:13:45.557Z,9.00
2022-08-01T07:16:13.811Z,10.30
2022-08-01T07:18:41.497Z,9.63
2022-08-01T07:21:16.782Z,9.13
2022-08-01T07:23:55.002Z,9.35
2022-08-01T07:26:22.657Z,10.43
2022-08-01T07:28:49.126Z,8.90
2022-08-01T07:31:16.015Z,8.52
2022-08-01T07:33:48.842Z,8.57
2022-08-01T07:36:17.207Z,8.43
2022-08-01T07:38:44.298Z,9.00
2022-08-01T07:41:11.211Z,8.57
2022-08-01T07:43:37.982Z,7.50
2022-08-01T07:46:05.704Z,7.15
2022-08-01T07:48:32.487Z,6.57
2022-08-01T07:50:59.102Z,5.63
2022-08-01T07:53:25.788Z,6.07
2022-08-01T07:55:52.721Z,5.63
2022-08-01T07:58:19.364Z,5.20
2022-08-01T08:00:45.839Z,4.65
2022-08-01T08:03:12.525Z,5.40
2022-08-01T08:05:58.535Z,4.70
2022-08-01T08:08:25.715Z,5.38
2022-08-01T08:10:52.493Z,5.40
2022-08-01T08:13:18.976Z,5.57
2022-08-01T08:15:48.298Z,5.20
2022-08-01T08:18:15.302Z,5.47
2022-08-01T08:20:42.105Z,5.25
2022-08-01T08:23:43.015Z,5.30
2022-08-01T08:26:12.004Z,4.97
2022-08-01T08:28:40.389Z,5.70
2022-08-01T08:31:25.215Z,6.03
2022-08-01T08:33:55.542Z,5.53
2022-08-01T08:36:22.329Z,5.60
2022-08-01T08:39:01.423Z,6.05
2022-08-01T08:41:27.996Z,5.75
2022-08-01T08:44:10.273Z,5.78
2022-08-01T08:46:52.462Z,6.75
2022-08-01T08:49:25.260Z,6.60
2022-08-01T08:51:53.934Z,6.00
2022-08-01T08:54:29.192Z,6.18
2022-08-01T08:56:59.929Z,5.95
2022-08-01T08:59:27.420Z,5.93
2022-08-01T09:01:54.009Z,6.25
2022-08-01T09:04:23.529Z,6.30
2022-08-01T09:06:53.315Z,5.88
2022-08-01T09:09:20.068Z,5.88
2022-08-01T09:11:56.748Z,5.55
2022-08-01T09:14:33.478Z,5.35
2022-08-01T09:17:12.146Z,5.82
2022-08-01T09:19:41.873Z,5.22
2022-08-01T09:22:14.974Z,5.28
2022-08-01T09:24:42.835Z,5.13
2022-08-01T09:27:22.293Z,5.00
2022-08-01T09:30:01.345Z,5.28
2022-08-01T09:32:35.302Z,5.18
2022-08-01T09:35:31.231Z,5.05
2022-08-01T09:38:22.117Z,5.90
2022-08-01T09:40:58.282Z,5.60
2022-08-01T09:43:28.296Z,6.05
2022-08-01T09:45:58.100Z,5.85
2022-08-01T09:48:28.690Z,5.30
2022-08-01T09:51:04.348Z,5.13
2022-08-01T09:53:50.967Z,5.20
2022-08-01T09:59:01.064Z,4.90
2022-08-01T10:01:42.073Z,5.88
2022-08-01T10:04:15.275Z,5.65
2022-08-01T10:06:45.682Z,6.00
2022-08-01T10:09:13.985Z,5.95
2022-08-01T10:11:44.906Z,5.07
2022-08-01T10:14:17.871Z,4.97
2022-08-01T10:16:46.074Z,4.30
2022-08-01T10:19:24.032Z,5.40
2022-08-01T10:21:58.779Z,6.05
2022-08-01T10:24:29.165Z,5.30
2022-08-01T10:27:05.529Z,5.20
2022-08-01T10:30:05.577Z,5.07
2022-08-01T10:32:36.796Z,4.75
2022-08-01T10:35:07.496Z,3.88
2022-08-01T10:37:52.380Z,4.80
2022-08-01T10:40:30.377Z,5.05
2022-08-01T10:42:58.000Z,4.90
2022-08-01T10:45:26.581Z,4.97
2022-08-01T10:48:13.304Z,4.93
2022-08-01T10:50:45.063Z,4.72
2022-08-01T10:53:24.071Z,4.95
2022-08-01T10:55:57.373Z,4.28
2022-08-01T10:58:30.464Z,4.30
2022-08-01T11:01:15.986Z,4.65
2022-08-01T11:04:02.034Z,4.50
2022-08-01T11:06:34.878Z,4.30
2022-08-01T11:09:37.325Z,3.53
2022-08-01T11:12:13.506Z,3.97
2022-08-01T11:14:59.405Z,3.65
2022-08-01T11:17:37.779Z,3.63
2022-08-01T11:20:17.354Z,3.63
2022-08-01T11:23:16.656Z,4.35
2022-08-01T11:26:06.224Z,5.45
2022-08-01T11:28:36.695Z,5.78
2022-08-01T11:31:11.813Z,5.90
2022-08-01T11:33:45.904Z,5.07
2022-08-01T11:36:13.170Z,5.03
2022-08-01T11:38:49.068Z,5.50
2022-08-01T11:41:18.681Z,4.28
2022-08-01T11:44:04.201Z,4.60
2022-08-01T11:46:46.467Z,4.45
2022-08-01T11:49:36.087Z,4.10
2022-08-01T11:52:02.868Z,3.75
2022-08-01T11:54:35.355Z,3.58
2022-08-01T11:57:05.872Z,3.40
2022-08-01T12:00:02.596Z,3.75
2022-08-01T12:02:35.163Z,4.00
2022-08-01T12:05:14.082Z,3.70
2022-08-01T12:07:44.678Z,4.00
2022-08-01T12:10:17.450Z,3.40
2022-08-01T12:12:52.776Z,4.00
2022-08-01T12:15:21.440Z,4.28
2022-08-01T12:17:58.085Z,3.63
2022-08-01T12:20:32.098Z,3.72
2022-08-01T12:23:01.405Z,3.85
2022-08-01T12:25:28.054Z,4.00
2022-08-01T12:27:56.854Z,4.32
2022-08-01T12:30:25.035Z,4.25
2022-08-01T12:32:53.319Z,4.38
2022-08-01T12:35:28.729Z,4.25
2022-08-01T12:38:01.364Z,4.18
2022-08-01T12:40:38.195Z,4.40
2022-08-01T12:43:09.051Z,4.18
2022-08-01T12:45:56.942Z,3.80
2022-08-01T12:48:25.286Z,3.95
2022-08-01T12:50:58.575Z,4.20
2022-08-01T12:53:26.970Z,3.95
2022-08-01T12:56:06.784Z,3.80
2022-08-01T12:58:34.656Z,3.88
2022-08-01T13:01:07.784Z,4.25
2022-08-01T13:03:34.784Z,4.28
2022-08-01T13:06:01.346Z,3.88
2022-08-01T13:08:32.877Z,3.45
2022-08-01T13:11:06.645Z,3.90
2022-08-01T13:13:50.269Z,3.40
2022-08-01T13:16:30.294Z,3.65
2022-08-01T13:19:07.303Z,3.90
2022-08-01T13:21:53.736Z,3.33
2022-08-01T13:24:29.097Z,3.47
2022-08-01T13:27:02.126Z,3.03
2022-08-01T13:29:48.269Z,3.17
2022-08-01T13:32:28.587Z,2.97
2022-08-01T13:35:07.540Z,2.60
2022-08-01T13:37:38.375Z,3.30
2022-08-01T13:40:07.187Z,3.15
2022-08-01T13:42:34.805Z,3.17
2022-08-01T13:45:02.873Z,2.53
2022-08-01T13:47:32.150Z,3.03
2022-08-01T13:50:03.060Z,3.47
2022-08-01T13:52:30.348Z,3.40
2022-08-01T13:54:57.205Z,3.95
2022-08-01T13:57:23.827Z,3.38
2022-08-01T13:59:50.346Z,3.30
2022-08-01T14:02:16.920Z,3.15
2022-08-01T14:04:43.440Z,2.97
2022-08-01T14:07:14.444Z,3.92
2022-08-01T14:09:45.054Z,3.40
2022-08-01T14:12:29.577Z,2.92
2022-08-01T14:14:56.182Z,3.17
2022-08-01T14:17:22.725Z,2.60
2022-08-01T14:19:49.577Z,3.10
2022-08-01T14:22:16.050Z,3.03
2022-08-01T14:24:43.166Z,3.05
2022-08-01T14:27:09.827Z,2.95
2022-08-01T14:30:02.266Z,2.80
2022-08-01T14:32:28.597Z,2.60
2022-08-01T14:34:57.163Z,2.83
2022-08-01T14:37:29.163Z,3.15
2022-08-01T14:40:06.099Z,3.20
2022-08-01T14:42:34.866Z,3.58
2022-08-01T14:45:01.340Z,3.25
2022-08-01T14:47:28.085Z,3.10
2022-08-01T14:49:54.705Z,3.03
2022-08-01T14:52:21.292Z,2.97
2022-08-01T14:54:47.859Z,3.08
2022-08-01T14:57:19.046Z,3.05
2022-08-01T14:59:45.866Z,2.53
2022-08-01T15:02:13.649Z,2.83
2022-08-01T15:04:40.256Z,2.75
2022-08-01T15:07:06.847Z,2.90
2022-08-01T15:09:33.487Z,2.90
2022-08-01T15:12:00.562Z,2.70
2022-08-01T15:14:45.811Z,2.60
2022-08-01T15:19:42.459Z,2.60
2022-08-01T15:22:09.639Z,2.30
2022-08-01T15:24:36.526Z,2.30
2022-08-01T15:27:03.414Z,2.42
2022-08-01T15:29:30.134Z,2.13
2022-08-01T15:31:56.694Z,2.22
2022-08-01T15:34:24.329Z,2.17
2022-08-01T15:36:51.252Z,2.10
2022-08-01T15:39:18.962Z,1.77
2022-08-01T15:41:45.453Z,1.70
2022-08-01T15:44:12.069Z,1.90
2022-08-01T15:46:38.561Z,1.50
2022-08-01T15:49:06.278Z,1.60
2022-08-01T15:51:33.932Z,1.60
2022-08-01T15:54:03.643Z,1.60
2022-08-01T15:56:31.002Z,1.77
2022-08-01T15:58:58.096Z,1.55
2022-08-01T16:01:26.885Z,1.67
2022-08-01T16:03:55.142Z,1.90
2022-08-01T16:06:21.914Z,1.88
2022-08-01T16:08:48.608Z,1.52
2022-08-01T16:11:15.150Z,1.55
2022-08-01T16:13:41.800Z,1.52
2022-08-01T16:16:08.806Z,1.70
2022-08-01T16:18:35.660Z,2.00
2022-08-01T16:21:02.340Z,1.83
2022-08-01T16:23:29.041Z,1.63
2022-08-01T16:25:55.831Z,1.60
2022-08-01T16:28:23.422Z,1.40
2022-08-01T16:30:54.526Z,1.50
2022-08-01T16:33:53.247Z,1.77
2022-08-01T16:36:21.296Z,1.50
2022-08-01T16:38:50.017Z,1.38
2022-08-01T16:41:19.865Z,1.60
2022-08-01T16:43:54.321Z,1.67
2022-08-01T16:46:25.696Z,1.40
2022-08-01T16:48:52.927Z,1.85
2022-08-01T16:51:19.957Z,1.60
2022-08-01T16:53:46.552Z,1.45
2022-08-01T16:56:13.087Z,1.80
2022-08-01T16:58:39.607Z,1.60
2022-08-01T17:01:59.350Z,2.30
2022-08-01T17:03:54.886Z,1.90
2022-08-01T17:06:25.398Z,1.70
2022-08-01T17:08:51.953Z,1.45
2022-08-01T17:11:18.567Z,1.50
2022-08-01T17:13:45.496Z,1.70
2022-08-01T17:16:12.218Z,1.90
2022-08-01T17:18:38.881Z,1.70
2022-08-01T17:21:05.471Z,2.10
2022-08-01T17:23:32.126Z,1.65
2022-08-01T17:25:59.229Z,1.90
2022-08-01T17:28:26.720Z,1.73
2022-08-01T17:30:53.638Z,1.83
2022-08-01T17:33:20.516Z,1.60
2022-08-01T17:35:47.185Z,1.75
2022-08-01T17:38:13.902Z,1.55
2022-08-01T17:40:41.121Z,1.55
2022-08-01T17:43:08.250Z,1.40
2022-08-01T17:45:39.420Z,1.92
2022-08-01T17:48:18.682Z,1.90
2022-08-01T17:50:47.251Z,1.70
2022-08-01T17:53:16.111Z,1.85
2022-08-01T17:55:54.052Z,1.83
2022-08-01T17:58:36.759Z,1.73
2022-08-01T18:01:11.590Z,1.83
2022-08-01T18:03:41.404Z,1.67
2022-08-01T18:06:10.163Z,1.70
2022-08-01T18:08:40.260Z,1.60
2022-08-01T18:11:07.044Z,1.88
2022-08-01T18:13:33.916Z,1.60
2022-08-01T18:16:01.061Z,1.67
2022-08-01T18:18:33.240Z,1.92
2022-08-01T18:21:02.000Z,1.90
2022-08-01T18:23:28.712Z,1.80
2022-08-01T18:25:55.572Z,2.00
2022-08-01T18:28:31.603Z,1.83
2022-08-01T18:31:00.955Z,1.90
2022-08-01T18:33:27.960Z,1.73
2022-08-01T18:35:56.062Z,2.20
2022-08-01T18:38:30.332Z,2.10
2022-08-01T18:40:57.533Z,2.17
2022-08-01T18:43:24.107Z,1.80
2022-08-01T18:45:50.776Z,2.22
2022-08-01T18:48:17.288Z,2.40
2022-08-01T18:50:43.789Z,2.50
2022-08-01T18:53:10.412Z,2.30
2022-08-01T18:55:37.167Z,2.35
2022-08-01T18:58:04.531Z,2.40
2022-08-01T19:00:31.425Z,2.22
2022-08-01T19:02:58.212Z,2.55
2022-08-01T19:05:24.918Z,2.42
2022-08-01T19:08:05.028Z,2.72
2022-08-01T19:10:38.815Z,2.42
2022-08-01T19:13:05.797Z,2.60
2022-08-01T19:15:32.440Z,2.28
2022-08-01T19:17:59.086Z,2.72
2022-08-01T19:20:26.221Z,2.40
2022-08-01T19:22:52.754Z,2.42
2022-08-01T19:25:19.591Z,2.67
2022-08-01T19:27:48.655Z,2.45
2022-08-01T19:30:17.005Z,2.88
2022-08-01T19:32:45.134Z,2.15
2022-08-01T19:35:13.942Z,2.70
2022-08-01T19:37:45.663Z,2.53
2022-08-01T19:40:26.255Z,2.50
2022-08-01T19:42:59.042Z,2.30
2022-08-01T19:45:29.513Z,2.60
2022-08-01T19:47:57.776Z,3.00
2022-08-01T19:50:28.589Z,2.60
2022-08-01T19:53:02.837Z,2.70
2022-08-01T19:55:36.330Z,2.55
2022-08-01T20:00:55.806Z,2.72
2022-08-01T20:03:23.310Z,2.72
2022-08-01T20:05:51.309Z,3.17
2022-08-01T20:08:20.710Z,2.90
2022-08-01T20:10:48.424Z,2.83
2022-08-01T20:13:15.577Z,2.55
2022-08-01T20:15:43.887Z,2.95
2022-08-01T20:18:10.516Z,2.80
2022-08-01T20:20:37.773Z,3.10
2022-08-01T20:23:10.279Z,3.25
2022-08-01T20:25:39.859Z,3.00
2022-08-01T20:28:10.670Z,3.28
2022-08-01T20:30:39.092Z,3.20
2022-08-01T20:33:11.126Z,3.30
2022-08-01T20:35:52.424Z,3.20
2022-08-01T20:38:27.544Z,2.83
2022-08-01T20:41:00.167Z,3.10
2022-08-01T20:43:27.511Z,3.42
2022-08-01T20:45:55.212Z,3.65
2022-08-01T20:48:22.216Z,3.20
2022-08-01T20:51:08.480Z,3.47
2022-08-01T20:53:40.900Z,3.55
2022-08-01T20:56:38.362Z,3.45
2022-08-01T20:59:10.004Z,3.30
2022-08-01T21:01:40.052Z,3.35
2022-08-01T21:04:29.337Z,3.65
2022-08-01T21:07:06.694Z,3.88
2022-08-01T21:09:39.325Z,3.53
2022-08-01T21:12:07.636Z,3.88
2022-08-01T21:14:49.217Z,3.90
2022-08-01T21:17:34.011Z,3.30
2022-08-01T21:20:07.688Z,3.63
2022-08-01T21:22:47.877Z,3.63
2022-08-01T21:25:18.141Z,4.28
2022-08-01T21:27:46.280Z,4.50
2022-08-01T21:30:12.818Z,4.60
2022-08-01T21:32:43.097Z,3.83
2022-08-01T21:35:15.960Z,4.40
2022-08-01T21:37:44.956Z,4.20
2022-08-01T21:40:20.845Z,4.47
2022-08-01T21:42:48.775Z,4.53
2022-08-01T21:45:15.361Z,4.78
2022-08-01T21:47:42.925Z,4.38
2022-08-01T21:50:09.601Z,4.15
2022-08-01T21:52:44.649Z,4.28
2022-08-01T21:55:22.634Z,4.47
2022-08-01T21:58:19.082Z,4.00
2022-08-01T22:00:56.258Z,4.50
2022-08-01T22:03:31.286Z,3.80
2022-08-01T22:06:00.483Z,4.25
2022-08-01T22:08:35.818Z,4.40
2022-08-01T22:11:07.843Z,4.25
2022-08-01T22:13:35.883Z,3.85
2022-08-01T22:16:04.499Z,4.15
2022-08-01T22:18:32.702Z,3.38
2022-08-01T22:20:59.426Z,3.80
2022-08-01T22:23:26.535Z,4.20
2022-08-01T22:25:55.279Z,4.05
2022-08-01T22:28:23.214Z,4.25
2022-08-01T22:30:51.626Z,4.30
2022-08-01T22:33:19.145Z,4.53
2022-08-01T22:35:50.372Z,4.30
2022-08-01T22:38:19.013Z,4.30
2022-08-01T22:40:50.084Z,4.30
2022-08-01T22:43:29.780Z,4.32
2022-08-01T22:46:28.285Z,4.20
2022-08-01T22:49:09.495Z,4.20
2022-08-01T22:51:39.406Z,4.93
2022-08-01T22:54:13.009Z,4.20
2022-08-01T22:56:46.586Z,4.30
2022-08-01T22:59:20.038Z,4.53
2022-08-01T23:01:51.613Z,4.18
2022-08-01T23:04:33.361Z,4.47
2022-08-01T23:07:04.846Z,4.38
2022-08-01T23:09:39.336Z,4.38
2022-08-01T23:12:22.808Z,4.50
2022-08-01T23:14:52.750Z,4.47
2022-08-01T23:17:27.411Z,4.47
2022-08-01T23:20:01.705Z,4.28
2022-08-01T23:22:31.333Z,4.25
2022-08-01T23:25:05.208Z,4.28
2022-08-01T23:27:51.688Z,4.50
2022-08-01T23:30:33.808Z,4.90
2022-08-01T23:33:00.634Z,4.30
2022-08-01T23:35:28.471Z,4.82
2022-08-01T23:38:02.480Z,4.70
2022-08-01T23:40:33.856Z,4.60
2022-08-01T23:43:02.094Z,4.85
2022-08-01T23:46:01.769Z,5.00
2022-08-01T23:48:15.843Z,4.70
2022-08-01T23:50:42.587Z,4.68
2022-08-01T23:53:09.312Z,4.03
2022-08-01T23:55:37.522Z,4.50
2022-08-01T23:58:06.791Z,4.95
